Metar reader and decoder

 

LIRH - Frosinone (it-Af, Italy
Distance from station: SO 5km
Dati ricevuti: 24/07/2024 19:55
Non Attivo
Few Clouds
Few Clouds
 Vento da SSO
Vento: SSO 6 km/h
Temperatura: 28°C
Indice di Calore: 30°C
P.to Rugiada: 21°C
Umidità: 66%
Barometro: 1010 hPa
Clouds: Few Clouds
Visibility: 10 km
Cloud details: Few Clouds 1219 m
2024/07/24 17:55 LIRH 241755Z 21003KT 9999 FEW040 28/21 Q1010
LIRL - Latina (it-Afb), Italy
Distance from station: OSO 40km
Dati ricevuti: 24/07/2024 21:55
Sereno
Sereno
 Vento da varies
Vento: varies 0 km/h
Temperatura: 27°C
Indice di Calore: 31°C
P.to Rugiada: 25°C
Umidità: 89%
Barometro: 1010 hPa
Summary: Sereno
Visibility: greater than 10 km
2024/07/24 19:55 LIRL 241955Z /////KT CAVOK 27/25 Q1010
 
LIRG - Guidonia (it-Afb, Italy
Distance from station: NO 63km
Dati ricevuti: 24/07/2024 19:55
Non Attivo
Sereno
Sereno
 Vento da S
Vento: S 17 km/h
Temperatura: 35°C
P.to Rugiada: 18°C
Umidità: 36%
Barometro: 1009 hPa
Summary: Sereno
Visibility: greater than 10 km
2024/07/24 17:55 LIRG 241755Z 19009KT CAVOK 35/18 Q1009
LIRA - Ciampino(It-Afb/, Italy
Distance from station: ONO 64km
Dati ricevuti: 24/07/2024 22:20
Sereno
Sereno
 Vento da SSO
Vento: SSO 13 km/h
Temperatura: 26°C
P.to Rugiada: 22°C
Umidità: 79%
Barometro: 1011 hPa
Summary: Sereno
Visibility: greater than 10 km
2024/07/24 20:20 LIRA 242020Z 20007KT CAVOK 26/22 Q1011
 
LIRU - Roma/Urbe (it-Af, Italy
Distance from station: ONO 76km
Dati ricevuti: 24/07/2024 19:50
Non Attivo
Sereno
Sereno
 Vento da OSO
Vento: OSO 13 km/h
Temperatura: 32°C
Indice di Calore: 34°C
P.to Rugiada: 20°C
Umidità: 49%
Barometro: 1008 hPa
Summary: Sereno
Visibility: greater than 10 km
2024/07/24 17:50 LIRU 241750Z 24007KT 210V270 CAVOK 32/20 Q1008
LIRE - Pratica Di Mare(, Italy
Distance from station: O 77km
Dati ricevuti: 24/07/2024 21:55
Sereno
Sereno
 Vento da ONO
Vento: ONO 6 km/h
Summary: Sereno
Visibility: greater than 10 km
2024/07/24 19:55 LIRE 241955Z 30003KT CAVOK 25/// Q1010
 
LIQN - Rieti, Italy
Distance from station: NNO 92km
Dati ricevuti: 24/07/2024 19:50
Non Attivo
Sereno
Sereno
 Vento da O
Vento: O 9 km/h
Temperatura: 30°C
Indice di Calore: 29°C
P.to Rugiada: 15°C
Umidità: 40%
Barometro: 1010 hPa
Summary: Sereno
Visibility: greater than 10 km
2024/07/24 17:50 LIQN 241750Z 28005KT CAVOK 30/15 Q1010
LIRK - Terminillo, Italy
Distance from station: NNO 93km
Dati ricevuti: 24/07/2024 21:55

 Vento da NNE
Vento: NNE 15 km/h
Temperatura: 19°C
P.to Rugiada: 7°C
Umidità: 46%
Barometro: 1023 hPa
2024/07/24 19:55 LIRK 241955Z AUTO 02008KT //// 19/07 Q1023
 
LIRF - Roma/Fiumicino, Italy
Distance from station: O 94km
Dati ricevuti: 24/07/2024 22:20
Sereno
Sereno
 Vento da O
Vento: O 11 km/h
Temperatura: 26°C
P.to Rugiada: 24°C
Umidità: 89%
Barometro: 1010 hPa
Summary: Sereno
Visibility: greater than 10 km
2024/07/24 20:20 LIRF 242020Z 28006KT CAVOK 26/24 Q1010 NOSIG
LIRM - Grazzanise (it-A, Italy
Distance from station: SE 94km
Dati ricevuti: 24/07/2024 21:55
Sereno
Sereno
 Vento da N
Vento: N 6 km/h
Temperatura: 27°C
Indice di Calore: 31°C
P.to Rugiada: 24°C
Umidità: 84%
Barometro: 1009 hPa
Summary: Sereno
Visibility: greater than 10 km
2024/07/24 19:55 LIRM 241955Z 36003KT CAVOK 27/24 Q1009
 
LIBP - Pescara, Italy
Distance from station: NE 108km
Dati ricevuti: 24/07/2024 22:20
Sereno
Sereno
 Vento da varies
Vento: varies 2 km/h
Temperatura: 25°C
P.to Rugiada: 21°C
Umidità: 79%
Barometro: 1011 hPa
Clouds: Sereno
Visibility: 10 km
2024/07/24 20:20 LIBP 242020Z AUTO VRB01KT 9999 NCD 25/21 Q1011
LIRN - Napoli/Capodichino, Italy
Distance from station: SE 120km
Dati ricevuti: 24/07/2024 22:20
Sereno
Sereno
 Vento da SSO
Vento: SSO 9 km/h
Temperatura: 27°C
Indice di Calore: 30°C
P.to Rugiada: 23°C
Umidità: 79%
Barometro: 1011 hPa
Summary: Sereno
Visibility: greater than 10 km
2024/07/24 20:20 LIRN 242020Z 20005KT 170V230 CAVOK 27/23 Q1011 NOSIG
 
LIRV - Viterbo (it-Mil), Italy
Distance from station: NO 133km
Dati ricevuti: 24/07/2024 21:55
Few Clouds
Few Clouds
 Vento da S
Vento: S 9 km/h
Temperatura: 25°C
P.to Rugiada: 22°C
Umidità: 83%
Barometro: 1011 hPa
Clouds: Few Clouds
Visibility: 10 km
Cloud details: Few Clouds 610 m
2024/07/24 19:55 LIRV 241955Z 19005KT 9999 FEW020 25/22 Q1011
LIQC - Capri, Italy
Distance from station: SSE 145km
Dati ricevuti: 24/07/2024 21:55
Sereno
Sereno
 Vento da calm
Vento: Calma
Temperatura: 26°C
P.to Rugiada: 23°C
Umidità: 84%
Barometro: 1011 hPa
Summary: Sereno
Visibility: greater than 10 km
2024/07/24 19:55 LIQC 241955Z 00000KT CAVOK 26/23 Q1011 RMK SKC QUK / QUL / VIS MAR 20 KM VIS MIN 9999
 
LIRT - Trevico, Italy
Distance from station: ESE 172km
Dati ricevuti: 24/07/2024 21:55

 Vento da varies
Vento: varies 4 km/h
Temperatura: 21°C
P.to Rugiada: 17°C
Umidità: 78%
Barometro: 1017 hPa
2024/07/24 19:55 LIRT 241955Z AUTO VRB02KT //// 21/17 Q1017
LIRZ - Perugia, Italy
Distance from station: NNO 172km
Dati ricevuti: 24/07/2024 22:20
Sereno
Sereno
 Vento da NNE
Vento: NNE 15 km/h
Temperatura: 27°C
Indice di Calore: 28°C
P.to Rugiada: 17°C
Umidità: 54%
Barometro: 1011 hPa
Clouds: Sereno
Visibility: 10 km
2024/07/24 20:20 LIRZ 242020Z AUTO 03008KT 010V070 9999 NCD 27/17 Q1011
 
LIRI - Pontecagnano (af, Italy
Distance from station: SE 177km
Dati ricevuti: 24/07/2024 21:50
Few Clouds
Few Clouds
 Vento da varies
Vento: varies 4 km/h
Temperatura: 27°C
Indice di Calore: 31°C
P.to Rugiada: 24°C
Umidità: 84%
Barometro: 1011 hPa
Clouds: Few Clouds
Visibility: 10 km
Cloud details: Few Clouds 1219 m
2024/07/24 19:50 LIRI 241950Z VRB02KT 9999 FEW040 27/24 Q1011
LIBF - Foggia/Gino Lisa, Italy
Distance from station: E 183km
Dati ricevuti: 24/07/2024 21:50
Few Clouds
Few Clouds
 Vento da NO
Vento: NO 17 km/h
Temperatura: 28°C
Indice di Calore: 30°C
P.to Rugiada: 21°C
Umidità: 66%
Barometro: 1011 hPa
Clouds: Few Clouds
Visibility: 10 km
Cloud details: Few Clouds 1219 m
2024/07/24 19:50 LIBF 241950Z 32009KT 9999 FEW040 28/21 Q1011
 
LIQO - Monte Argentario, Italy
Distance from station: ONO 195km
Dati ricevuti: 24/07/2024 21:55

 Vento da N
Vento: N 20 km/h
Temperatura: 25°C
P.to Rugiada: 16°C
Umidità: 57%
Barometro: 1013 hPa
2024/07/24 19:55 LIQO 241955Z AUTO 01011KT //// 25/16 Q1013
LIBA - Amendola (it-Afb, Italy
Distance from station: E 198km
Dati ricevuti: 24/07/2024 21:55
Few Clouds
Few Clouds
 Vento da ONO
Vento: ONO 22 km/h
Temperatura: 28°C
Indice di Calore: 30°C
P.to Rugiada: 21°C
Umidità: 66%
Barometro: 1010 hPa
Clouds: Few Clouds
Visibility: 10 km
Cloud details: Few Clouds 1219 m
2024/07/24 19:55 LIBA 241955Z 30012KT 9999 FEW040 28/21 Q1010
 
LIBN - Lecce (it-Afb), Italy
Dati ricevuti: 24/07/2024 21:55
Sereno
Sereno
 Vento da NNO
Vento: NNO 22 km/h
Temperatura: 28°C
Indice di Calore: 32°C
P.to Rugiada: 25°C
Umidità: 84%
Barometro: 1008 hPa
Summary: Sereno
Visibility: greater than 10 km
2024/07/24 19:55 LIBN 241955Z 34012KT CAVOK 28/25 Q1008
LIPY - Ancona-Falconara, Italy
Dati ricevuti: 24/07/2024 22:20
Sereno
Sereno
 Vento da S
Vento: S 6 km/h
Temperatura: 25°C
P.to Rugiada: 20°C
Umidità: 74%
Barometro: 1011 hPa
Clouds: Sereno
Visibility: 10 km
2024/07/24 20:20 LIPY 242020Z AUTO 19003KT 9999 NCD 25/20 Q1011
 
LICJ - Palermo-Punta Raisi, Italy
Dati ricevuti: 24/07/2024 22:20
Sereno
Sereno
 Vento da varies
Vento: varies 4 km/h
Temperatura: 26°C
P.to Rugiada: 23°C
Umidità: 84%
Barometro: 1011 hPa
Summary: Sereno
Visibility: greater than 10 km
2024/07/24 20:20 LICJ 242020Z VRB02KT CAVOK 26/23 Q1011
LIEB - Capo Bellavista, Italy
Dati ricevuti: 24/07/2024 21:55
Sereno
Sereno
 Vento da ESE
Vento: ESE 11 km/h
Temperatura: 26°C
P.to Rugiada: 24°C
Umidità: 89%
Barometro: 1010 hPa
Summary: Sereno
Visibility: greater than 10 km
2024/07/24 19:55 LIEB 241955Z 11006KT CAVOK 26/24 Q1010 RMK SKC QUK / QUL / VIS MAR 20 KM MON INVIS VIS MIN 9999
 
LIEC - Capo Carbonara, Italy
Dati ricevuti: 24/07/2024 21:55
Sereno
Sereno
 Vento da NO
Vento: NO 26 km/h
Temperatura: 28°C
Indice di Calore: 28°C
P.to Rugiada: 16°C
Umidità: 48%
Barometro: 1009 hPa
Summary: Sereno
Visibility: greater than 10 km
2024/07/24 19:55 LIEC 241955Z 31014KT CAVOK 28/16 Q1009 RMK FEW FEW200 QUK / QUL / VIS MAR 18 KM VIS MIN 9999
LIED - Cagliari-Decimomannu(It-A, Italy
Dati ricevuti: 24/07/2024 21:55
Sereno
Sereno
 Vento da NO
Vento: NO 31 km/h
Temperatura: 25°C
P.to Rugiada: 21°C
Umidità: 79%
Barometro: 1012 hPa
Summary: Sereno
Visibility: greater than 10 km
2024/07/24 19:55 LIED 241955Z 31017KT CAVOK 25/21 Q1012
 
LIEE - Cagliari-Elmas(A, Italy
Dati ricevuti: 24/07/2024 22:20
Sereno
Sereno
 Vento da N
Vento: N 22 km/h
Temperatura: 25°C
P.to Rugiada: 18°C
Umidità: 65%
Barometro: 1013 hPa
Summary: Sereno
Visibility: greater than 10 km
2024/07/24 20:20 LIEE 242020Z 36012KT CAVOK 25/18 Q1013
LIEO - Olbia-Costa Smeralda, Italy
Dati ricevuti: 24/07/2024 22:20
Sereno
Sereno
 Vento da SO
Vento: SO 20 km/h
Temperatura: 26°C
P.to Rugiada: 17°C
Umidità: 58%
Barometro: 1011 hPa
Summary: Sereno
Visibility: greater than 10 km
2024/07/24 20:20 LIEO 242020Z 22011KT CAVOK 26/17 Q1011
 
LIEA - Alghero, Italy
Dati ricevuti: 24/07/2024 22:20
Sereno
Sereno
 Vento da SSO
Vento: SSO 9 km/h
Temperatura: 23°C
P.to Rugiada: 19°C
Umidità: 78%
Barometro: 1013 hPa
Summary: Sereno
Visibility: greater than 10 km
2024/07/24 20:20 LIEA 242020Z 21005KT CAVOK 23/19 Q1013
LICA - Catanzaro-Lamezia Terme, Italy
Dati ricevuti: 24/07/2024 22:20
Molto nuvoloso
Molto nuvoloso
 Vento da OSO
Vento: OSO 15 km/h
Temperatura: 28°C
Indice di Calore: 31°C
P.to Rugiada: 23°C
Umidità: 74%
Barometro: 1011 hPa
Clouds: Molto nuvoloso
Visibility: 10 km
Cloud details: Molto nuvoloso 640 m
2024/07/24 20:20 LICA 242020Z AUTO 25008KT 9999 BKN021/// 28/23 Q1011
 
LIBQ - Cosenza-Monte Scuro, Italy
Dati ricevuti: 24/07/2024 21:55

 Vento da NNO
Vento: NNO 6 km/h
Temperatura: 18°C
P.to Rugiada: 11°C
Umidità: 64%
Barometro: 1020 hPa
2024/07/24 19:55 LIBQ 241955Z AUTO 34003KT //// 18/11 Q1020
LICR - Reggio Calabria, Italy
Dati ricevuti: 24/07/2024 22:20
Few Clouds
Few Clouds
 Vento da N
Vento: N 20 km/h
Temperatura: 27°C
Indice di Calore: 30°C
P.to Rugiada: 23°C
Umidità: 79%
Barometro: 1011 hPa
Clouds: Few Clouds
Visibility: 10 km
Cloud details: Few Clouds 1280 m
2024/07/24 20:20 LICR 242020Z AUTO 36011KT 9999 FEW042/// 27/23 Q1011
 
LIBV - Bari-Gioia Del Colle, Italy
Dati ricevuti: 24/07/2024 21:55
Sereno
Sereno
 Vento da N
Vento: N 17 km/h
Temperatura: 26°C
P.to Rugiada: 20°C
Umidità: 70%
Barometro: 1011 hPa
Summary: Sereno
Visibility: greater than 10 km
2024/07/24 19:55 LIBV 241955Z 35009KT CAVOK 26/20 Q1011
LIBD - Bari-Palese Macchie, Italy
Dati ricevuti: 24/07/2024 22:20
Sereno
Sereno
 Vento da NO
Vento: NO 7 km/h
Temperatura: 28°C
Indice di Calore: 30°C
P.to Rugiada: 22°C
Umidità: 70%
Barometro: 1010 hPa
Summary: Sereno
Visibility: greater than 10 km
2024/07/24 20:20 LIBD 242020Z 31004KT 270V340 CAVOK 28/22 Q1010
 
LIBR - Brindisi-Casale, Italy
Dati ricevuti: 24/07/2024 22:20
Few Clouds
Few Clouds
 Vento da NO
Vento: NO 15 km/h
Temperatura: 28°C
Indice di Calore: 31°C
P.to Rugiada: 23°C
Umidità: 74%
Barometro: 1009 hPa
Clouds: Few Clouds
Visibility: 10 km
Cloud details: Few Clouds 914 m
2024/07/24 20:20 LIBR 242020Z 32008KT 9999 FEW030 28/23 Q1009
LIRT - Trevico, Italy
Dati ricevuti: 24/07/2024 21:55

 Vento da varies
Vento: varies 4 km/h
Temperatura: 21°C
P.to Rugiada: 17°C
Umidità: 78%
Barometro: 1017 hPa
2024/07/24 19:55 LIRT 241955Z AUTO VRB02KT //// 21/17 Q1017
 
LICB - Comiso, Italy
Dati ricevuti: 24/07/2024 22:20
Sereno
Sereno
 Vento da varies
Vento: varies 2 km/h
Temperatura: 26°C
P.to Rugiada: 19°C
Umidità: 65%
Barometro: 1011 hPa
Clouds: Sereno
Visibility: 10 km
2024/07/24 20:20 LICB 242020Z AUTO VRB01KT 9999 NCD 26/19 Q1011
LICL - Gela, Italy
Dati ricevuti: 24/07/2024 21:55

 Vento da NNE
Vento: NNE 7 km/h
Temperatura: 28°C
Indice di Calore: 29°C
P.to Rugiada: 20°C
Umidità: 62%
Barometro: 1010 hPa
2024/07/24 19:55 LICL 241955Z AUTO 03004KT 350V090 //// 28/20 Q1010
 
LIBN - Lecce (it-Afb), Italy
Dati ricevuti: 24/07/2024 21:55
Sereno
Sereno
 Vento da NNO
Vento: NNO 22 km/h
Temperatura: 28°C
Indice di Calore: 32°C
P.to Rugiada: 25°C
Umidità: 84%
Barometro: 1008 hPa
Summary: Sereno
Visibility: greater than 10 km
2024/07/24 19:55 LIBN 241955Z 34012KT CAVOK 28/25 Q1008
LICJ - Palermo-Punta Raisi, Italy
Dati ricevuti: 24/07/2024 22:20
Sereno
Sereno
 Vento da varies
Vento: varies 4 km/h
Temperatura: 26°C
P.to Rugiada: 23°C
Umidità: 84%
Barometro: 1011 hPa
Summary: Sereno
Visibility: greater than 10 km
2024/07/24 20:20 LICJ 242020Z VRB02KT CAVOK 26/23 Q1011
 
LICZ - Catania-Sigonella (nas), Italy
Dati ricevuti: 24/07/2024 21:55
Sereno
Sereno
 Vento da SSE
Vento: SSE 6 km/h
Temperatura: 27°C
Indice di Calore: 33°C
P.to Rugiada: 27°C
Umidità: 100%
Barometro: 1011 hPa
Summary: Sereno
Visibility: greater than 10 km
2024/07/24 19:55 LICZ 241955Z 15003KT CAVOK 27/27 Q1011
LICC - Catania-Fontanarossa, Italy
Dati ricevuti: 24/07/2024 22:20
Few Clouds
Few Clouds
 Vento da ENE
Vento: ENE 7 km/h
Temperatura: 29°C
Indice di Calore: 32°C
P.to Rugiada: 23°C
Umidità: 70%
Barometro: 1010 hPa
Clouds: Few Clouds
Visibility: 10 km
Cloud details: Few Clouds 1219 m
2024/07/24 20:20 LICC 242020Z 06004KT 030V090 9999 FEW040 29/23 Q1010
 
LICT - Trapani-Birgi (a, Italy
Dati ricevuti: 24/07/2024 21:55
Sereno
Sereno
 Vento da ONO
Vento: ONO 4 km/h
Temperatura: 24°C
P.to Rugiada: 23°C
Umidità: 94%
Barometro: 1011 hPa
Summary: Sereno
Visibility: greater than 10 km
2024/07/24 19:55 LICT 241955Z 30002KT CAVOK 24/23 Q1011
LICD - Agrigento-Lampedusa, Italy
Dati ricevuti: 24/07/2024 22:20
Sereno
Sereno
 Vento da N
Vento: N 22 km/h
Temperatura: 25°C
P.to Rugiada: 24°C
Umidità: 94%
Barometro: 1012 hPa
Clouds: Sereno
Visibility: 10 km
2024/07/24 20:20 LICD 242020Z AUTO 35012KT 9999 // NCD 25/24 Q1012
 
LICG - Pantelleria(It-A, Italy
Dati ricevuti: 24/07/2024 19:50
Non Attivo
Molto nuvoloso
Molto nuvoloso
 Vento da NO
Vento: NO 19 km/h
Temperatura: 24°C
P.to Rugiada: 23°C
Umidità: 94%
Barometro: 1014 hPa
Clouds: Molto nuvoloso
Visibility: 10 km
Cloud details: Molto nuvoloso 183 m
2024/07/24 17:50 LICG 241750Z 31010KT 9999 BKN006 24/23 Q1014
LIPX - Villafranca(Cv/M, Italy
Dati ricevuti: 24/07/2024 22:20
Few Clouds
Few Clouds
 Vento da NE
Vento: NE 9 km/h
Temperatura: 27°C
Indice di Calore: 28°C
P.to Rugiada: 18°C
Umidità: 58%
Barometro: 1012 hPa
Clouds: Few Clouds
Visibility: 10 km
Cloud details: Few Clouds 1524 m
2024/07/24 20:20 LIPX 242020Z 05005KT 9999 FEW050 27/18 Q1012
 
LIPO - Brescia/Montichiari, Italy
Dati ricevuti: 24/07/2024 22:20
Sereno
Sereno
 Vento da NE
Vento: NE 19 km/h
Temperatura: 26°C
P.to Rugiada: 19°C
Umidità: 65%
Barometro: 1012 hPa
Clouds: Sereno
Visibility: 10 km
2024/07/24 20:20 LIPO 242020Z AUTO 04010KT 9999 NCD 26/19 Q1012
LIPL - Ghedi (it-Afb), Italy
Dati ricevuti: 24/07/2024 21:55
Parz. nuvoloso
Parz. nuvoloso
 Vento da E
Vento: E 7 km/h
Temperatura: 27°C
Indice di Calore: 30°C
P.to Rugiada: 23°C
Umidità: 79%
Barometro: 1010 hPa
Clouds: Parz. nuvoloso
Visibility: 10 km
Cloud details: Parz. nuvoloso 1219 m
2024/07/24 19:55 LIPL 241955Z 08004KT 9999 SCT040 27/23 Q1010
 
LIMP - Parma, Italy
Dati ricevuti: 24/07/2024 21:50
Sereno
Sereno
 Vento da E
Vento: E 7 km/h
Temperatura: 27°C
Indice di Calore: 28°C
P.to Rugiada: 18°C
Umidità: 58%
Barometro: 1011 hPa
Summary: Sereno
Visibility: greater than 10 km
2024/07/24 19:50 LIMP 241950Z 10004KT CAVOK 27/18 Q1011
LIMS - Piacenza (it-Afb, Italy
Dati ricevuti: 24/07/2024 19:55
Non Attivo
Parz. nuvoloso
Parz. nuvoloso
 Vento da SO
Vento: SO 6 km/h
Temperatura: 29°C
Indice di Calore: 39°C
P.to Rugiada: 29°C
Umidità: 100%
Barometro: 1009 hPa
Clouds: Parz. nuvoloso
Visibility: 10 km
Cloud details: Parz. nuvoloso 914 m
2024/07/24 17:55 LIMS 241755Z 22003KT 9999 SCT030TCU 29/29 Q1009
 
LIPF - Ferrara (aut), Italy
Dati ricevuti: 24/07/2024 19:55
Non Attivo
Sereno
Sereno
 Vento da calm
Vento: Calma
Temperatura: 28°C
Indice di Calore: 29°C
P.to Rugiada: 20°C
Umidità: 62%
Barometro: 1010 hPa
Summary: Sereno
Visibility: greater than 10 km
2024/07/24 17:55 LIPF 241755Z 00000KT CAVOK 28/20 Q1010
LIPE - Bologna/Borgo (a, Italy
Dati ricevuti: 24/07/2024 22:20
Parz. nuvoloso
Parz. nuvoloso
 Vento da E
Vento: E 13 km/h
Temperatura: 27°C
Indice di Calore: 28°C
P.to Rugiada: 19°C
Umidità: 62%
Barometro: 1011 hPa
Clouds: Parz. nuvoloso
Visibility: 10 km
Cloud details: Parz. nuvoloso 1524 m
2024/07/24 20:20 LIPE 242020Z 10007KT 9999 SCT050 27/19 Q1011
 
LIPU - Padova (civ/It-A, Italy
Dati ricevuti: 24/07/2024 15:50
Non Attivo
Parz. nuvoloso
Parz. nuvoloso
 Vento da ESE
Vento: ESE 15 km/h
Temperatura: 29°C
Indice di Calore: 29°C
P.to Rugiada: 16°C
Umidità: 45%
Barometro: 1012 hPa
Clouds: Parz. nuvoloso
Visibility: 10 km
Cloud details: Parz. nuvoloso 762 m
2024/07/24 13:50 LIPU 241350Z 11008KT 090V150 9999 SCT025 29/16 Q1012
LIME - Bergamo/Orio Ser, Italy
Dati ricevuti: 24/07/2024 22:20
Sereno
Sereno
 Vento da NE
Vento: NE 9 km/h
Temperatura: 24°C
P.to Rugiada: 22°C
Umidità: 89%
Barometro: 1013 hPa
Summary: Sereno
Visibility: greater than 10 km
2024/07/24 20:20 LIME 242020Z 04005KT CAVOK 24/22 Q1013 NOSIG
 
LIMT - Cisa Pass, Italy
Dati ricevuti: 23/09/2019 13:55
Non Attivo
Nebbia
Nebbia
 Vento da calm
Vento: Calma
Temperatura: 10°C
P.to Rugiada: 10°C
Umidità: 100%
Barometro: 1014 hPa
Summary: Nebbia
Visibility: 0 km
2019/09/23 11:55 LIMT 231155Z 00000KT 0000 FG VV/// 10/10 Q1014 RMK MON INVIS VAL INVIS VIS MIN 0000
LIVC - Cimone Mountain, Italy
Dati ricevuti: 24/07/2024 21:55

 Vento da SSO
Vento: SSO 13 km/h
Temperatura: 15°C
P.to Rugiada: 5°C
Umidità: 51%
Barometro: 1025 hPa
2024/07/24 19:55 LIVC 241955Z AUTO 20007KT //// 15/05 Q1025
 
LIVP - Paganella Mounta, Italy
Dati ricevuti: 24/07/2024 21:55
Parz. nuvoloso
Parz. nuvoloso
 Vento da S
Vento: S 6 km/h
Temperatura: 12°C
P.to Rugiada: 10°C
Umidità: 88%
Barometro: 1023 hPa
Clouds: Parz. nuvoloso
Visibility: 10 km
Cloud details: Parz. nuvoloso 1219 m
2024/07/24 19:55 LIVP 241955Z 18003KT 9999 SCT040 12/10 Q1023
LIML - Milano/Linate, Italy
Dati ricevuti: 24/07/2024 22:20
Few Clouds
Few Clouds
 Vento da E
Vento: E 15 km/h
Temperatura: 28°C
Indice di Calore: 30°C
P.to Rugiada: 21°C
Umidità: 66%
Barometro: 1011 hPa
Clouds: Few Clouds
Visibility: 10 km
Cloud details: Few Clouds 2134 m
2024/07/24 20:20 LIML 242020Z 09008KT 9999 FEW070 28/21 Q1011 NOSIG
 
LIPS - Istrana (it-Afb), Italy
Dati ricevuti: 24/07/2024 21:55
Few Clouds
Few Clouds
 Vento da NNE
Vento: NNE 4 km/h
Temperatura: 24°C
P.to Rugiada: 19°C
Umidità: 74%
Barometro: 1012 hPa
Clouds: Few Clouds
Visibility: 10 km
Cloud details: Few Clouds 2438 m
2024/07/24 19:55 LIPS 241955Z 03002KT 9999 FEW080 24/19 Q1012
LIPH - Treviso(Civ/It-A, Italy
Dati ricevuti: 24/07/2024 22:20
Sereno
Sereno
 Vento da NE
Vento: NE 6 km/h
Temperatura: 26°C
P.to Rugiada: 18°C
Umidità: 61%
Barometro: 1012 hPa
Summary: Sereno
Visibility: greater than 10 km
2024/07/24 20:20 LIPH 242020Z 04003KT CAVOK 26/18 Q1012
 
LIPZ - Venezia/Tessera, Italy
Dati ricevuti: 24/07/2024 22:20
Sereno
Sereno
 Vento da NNE
Vento: NNE 13 km/h
Temperatura: 27°C
Indice di Calore: 28°C
P.to Rugiada: 17°C
Umidità: 54%
Barometro: 1012 hPa
Summary: Sereno
Visibility: greater than 10 km
2024/07/24 20:20 LIPZ 242020Z 03007KT CAVOK 27/17 Q1012 NOSIG
LIQW - Sarzana/Luni, Italy
Dati ricevuti: 24/07/2024 15:55
Non Attivo
Few Clouds
Few Clouds
 Vento da SSE
Vento: SSE 9 km/h
Temperatura: 32°C
Indice di Calore: 36°C
P.to Rugiada: 21°C
Umidità: 52%
Barometro: 1010 hPa
Clouds: Few Clouds
Visibility: 10 km
Cloud details: Few Clouds 914 m
2024/07/24 13:55 LIQW 241355Z 16005KT 9999 FEW030CB 32/21 Q1010
 
LIVR - Rolle Pass, Italy
Dati ricevuti: 24/07/2024 21:55

 
2024/07/24 19:55 LIVR 241955Z ///03KT 9999 SCT010 BKN030 11/09 Q1022
LIPK - Forli (civ/It-Af, Italy
Dati ricevuti: 24/07/2024 21:50
Sereno
Sereno
 Vento da varies
Vento: varies 2 km/h
Temperatura: 27°C
Indice di Calore: 28°C
P.to Rugiada: 19°C
Umidità: 62%
Barometro: 1011 hPa
Summary: Sereno
Visibility: greater than 10 km
2024/07/24 19:50 LIPK 241950Z VRB01KT CAVOK 27/19 Q1011
 
LIMV - Giovi Pass, Italy
Dati ricevuti: 24/07/2024 19:55
Non Attivo
Sereno
Sereno
 Vento da varies
Vento: varies 0 km/h
Temperatura: 27°C
Indice di Calore: 29°C
P.to Rugiada: 20°C
Umidità: 66%
Barometro: 1013 hPa
Summary: Sereno
Visibility: greater than 10 km
2024/07/24 17:55 LIMV 241755Z /////KT CAVOK 27/20 Q1013
LIPB - Bolzano(Civ/It-A, Italy
Dati ricevuti: 24/07/2024 21:50
Few Clouds
Few Clouds
 Vento da SE
Vento: SE 9 km/h
Temperatura: 24°C
P.to Rugiada: 18°C
Umidità: 69%
Barometro: 1013 hPa
Clouds: Few Clouds
Visibility: 10 km
Cloud details: Few Clouds 2438 m
2024/07/24 19:50 LIPB 241950Z 13005KT 9999 FEW080 24/18 Q1013
 
LIVD - Bolzano-Dobbiaco, Italy
Dati ricevuti: 24/07/2024 21:55

 Vento da varies
Vento: varies 4 km/h
Temperatura: 16°C
P.to Rugiada: 11°C
Umidità: 72%
Barometro: 1021 hPa
2024/07/24 19:55 LIVD 241955Z AUTO VRB02KT //// 16/11 Q1021
LIVE - Bolzano-Passo Resia, Italy
Dati ricevuti: 24/07/2024 21:55
Sereno
Sereno
 Vento da NNE
Vento: NNE 7 km/h
Temperatura: 18°C
P.to Rugiada: 10°C
Umidità: 60%
Barometro: 1020 hPa
Summary: Sereno
Visibility: greater than 10 km
2024/07/24 19:55 LIVE 241955Z 03004KT CAVOK 18/10 Q1020
 
LIMH - Aosta-Pian Rosa (mtn T, Italy
Dati ricevuti: 24/07/2024 21:55

 Vento da E
Vento: E 7 km/h
Temperatura: 4°C
Temperatura del Vento: 2°C
P.to Rugiada: 0°C
Umidità: 75%
Barometro: 1032 hPa
2024/07/24 19:55 LIMH 241955Z AUTO 09004KT //// 04/M00 Q1032
LIMZ - Cuneo/Levaldigi, Italy
Dati ricevuti: 24/07/2024 22:20
Parz. nuvoloso
Parz. nuvoloso
 Vento da NO
Vento: NO 6 km/h
Temperatura: 26°C
P.to Rugiada: 20°C
Umidità: 70%
Barometro: 1012 hPa
Clouds: Parz. nuvoloso
Visibility: 10 km
Cloud details: Parz. nuvoloso 1372 m
2024/07/24 20:20 LIMZ 242020Z AUTO 31003KT 9999 SCT045/// 26/20 Q1012
 
LIMK - Torino-Bric Della Croce, Italy
Dati ricevuti: 24/07/2024 21:55

 Vento da ENE
Vento: ENE 13 km/h
Temperatura: 25°C
P.to Rugiada: 18°C
Umidità: 65%
Barometro: 1014 hPa
2024/07/24 19:55 LIMK 241955Z AUTO 06007KT //// 25/18 Q1014
LIMN - Novara-Cameri (it-Afb), Italy
Dati ricevuti: 24/07/2024 19:55
Non Attivo
Sereno
Sereno
 Vento da O
Vento: O 6 km/h
Temperatura: 30°C
Indice di Calore: 33°C
P.to Rugiada: 21°C
Umidità: 59%
Barometro: 1010 hPa
Summary: Sereno
Visibility: greater than 10 km
2024/07/24 17:55 LIMN 241755Z 27003KT CAVOK 30/21 Q1010
 
LIPA - Pordenone-Aviano (it/Us-Af, Italy
Dati ricevuti: 24/07/2024 21:55
Parz. nuvoloso
Parz. nuvoloso
 Vento da NNE
Vento: NNE 11 km/h
Temperatura: 24°C
P.to Rugiada: 21°C
Umidità: 83%
Barometro: 1012 hPa
Clouds: Parz. nuvoloso
Visibility: 10 km
Cloud details: Parz. nuvoloso 2438 m
2024/07/24 19:55 LIPA 241955Z 02006KT 9999 SCT080 24/21 Q1012
LIPI - Udine-Rivolto (it-Afb), Italy
Dati ricevuti: 24/07/2024 21:55
Few Clouds
Few Clouds
 Vento da N
Vento: N 11 km/h
Temperatura: 24°C
P.to Rugiada: 20°C
Umidità: 78%
Barometro: 1012 hPa
Clouds: Few Clouds
Visibility: 10 km
Cloud details: Few Clouds 3048 m
2024/07/24 19:55 LIPI 241955Z 35006KT 9999 FEW100 24/20 Q1012
 
LIVO - Udine-Tarvisio, Italy
Dati ricevuti: 24/07/2024 15:55
Non Attivo
Parz. nuvoloso
Parz. nuvoloso
 Vento da ENE
Vento: ENE 4 km/h
Temperatura: 23°C
P.to Rugiada: 15°C
Umidità: 61%
Barometro: 1016 hPa
Clouds: Parz. nuvoloso
Visibility: 10 km
Cloud details: Parz. nuvoloso 914 m
2024/07/24 13:55 LIVO 241355Z 06002KT 9999 SCT030 23/15 Q1016
LIPQ - Trieste-Ronchi Dei Legionari, Italy
Dati ricevuti: 24/07/2024 22:20
Parz. nuvoloso
Parz. nuvoloso
 Vento da SE
Vento: SE 6 km/h
Temperatura: 27°C
Indice di Calore: 27°C
P.to Rugiada: 15°C
Umidità: 48%
Barometro: 1012 hPa
Clouds: Parz. nuvoloso
Visibility: 10 km
Cloud details: Few Clouds 3048 m
Parz. nuvoloso 3353 m
2024/07/24 20:20 LIPQ 242020Z AUTO 14003KT 9999 FEW100/// SCT110/// 27/15 Q1012
 
LIVT - Trieste, Italy
Dati ricevuti: 24/07/2024 21:55

 Vento da NE
Vento: NE 11 km/h
Temperatura: 28°C
Indice di Calore: 28°C
P.to Rugiada: 15°C
Umidità: 45%
Barometro: 1012 hPa
2024/07/24 19:55 LIVT 241955Z AUTO 05006KT 340V110 //// 28/15 Q1012
LIRQ - Firenze/Peretola, Italy
Dati ricevuti: 24/07/2024 22:20
Sereno
Sereno
 Vento da OSO
Vento: OSO 6 km/h
Temperatura: 28°C
Indice di Calore: 29°C
P.to Rugiada: 19°C
Umidità: 58%
Barometro: 1010 hPa
Summary: Sereno
Visibility: greater than 10 km
2024/07/24 20:20 LIRQ 242020Z 24003KT 170V340 CAVOK 28/19 Q1010
 
LIPK - Forli (civ/It-Af, Italy
Dati ricevuti: 24/07/2024 21:50
Sereno
Sereno
 Vento da varies
Vento: varies 2 km/h
Temperatura: 27°C
Indice di Calore: 28°C
P.to Rugiada: 19°C
Umidità: 62%
Barometro: 1011 hPa
Summary: Sereno
Visibility: greater than 10 km
2024/07/24 19:50 LIPK 241950Z VRB01KT CAVOK 27/19 Q1011
LIRS - Grosseto (it-Afb, Italy
Dati ricevuti: 24/07/2024 21:55
Few Clouds
Few Clouds
 Vento da SE
Vento: SE 7 km/h
Temperatura: 27°C
Indice di Calore: 31°C
P.to Rugiada: 25°C
Umidità: 89%
Barometro: 1009 hPa
Clouds: Few Clouds
Visibility: 10 km
Cloud details: Few Clouds 914 m
2024/07/24 19:55 LIRS 241955Z 14004KT 9999 FEW030 27/25 Q1009
 
LIRP - Pisa (civ/It-Afb, Italy
Dati ricevuti: 24/07/2024 22:15
Sereno
Sereno
 Vento da O
Vento: O 6 km/h
Temperatura: 28°C
Indice di Calore: 34°C
P.to Rugiada: 27°C
Umidità: 94%
Barometro: 1010 hPa
Summary: Sereno
Visibility: greater than 10 km
2024/07/24 20:15 LIRP 242015Z 27003KT CAVOK 28/27 Q1010 NOSIG
LIVF - Frontone, Italy
Dati ricevuti: 24/07/2024 21:55
Sereno
Sereno
 Vento da SSE
Vento: SSE 9 km/h
Temperatura: 24°C
P.to Rugiada: 16°C
Umidità: 61%
Barometro: 1013 hPa
Summary: Sereno
Visibility: greater than 10 km
2024/07/24 19:55 LIVF 241955Z 15005KT CAVOK 24/16 Q1013
 
LIPC - Cervia (it-Afb), Italy
Dati ricevuti: 24/07/2024 21:55
Sereno
Sereno
 Vento da S
Vento: S 4 km/h
Temperatura: 26°C
P.to Rugiada: 19°C
Umidità: 65%
Barometro: 1012 hPa
Summary: Sereno
Visibility: greater than 10 km
2024/07/24 19:55 LIPC 241955Z 19002KT CAVOK 26/19 Q1012
LIPR - Rimini (civ/It-A, Italy
Dati ricevuti: 24/07/2024 22:20
Sereno
Sereno
 Vento da ESE
Vento: ESE 6 km/h
Temperatura: 28°C
Indice di Calore: 29°C
P.to Rugiada: 20°C
Umidità: 62%
Barometro: 1011 hPa
Summary: Sereno
Visibility: greater than 10 km
2024/07/24 20:20 LIPR 242020Z 11003KT 080V140 CAVOK 28/20 Q1011
 
LIRX - Monte Calamita, Italy
Dati ricevuti: 24/07/2024 21:55

 Vento da NNO
Vento: NNO 19 km/h
Temperatura: 22°C
P.to Rugiada: 20°C
Umidità: 88%
Barometro: 1012 hPa
2024/07/24 19:55 LIRX 241955Z AUTO 34010KT //// 22/20 Q1012
LIVM - Punta Marina/Rav, Italy
Dati ricevuti: 24/07/2024 21:55

 Vento da varies
Vento: varies 0 km/h
2024/07/24 19:55 LIVM 241955Z AUTO /////KT //// ///// Q////